Time;durP1;ratioP1;P1;durP2;ratioP2;P2;SDS_P1;SDS_P2;PMS_P1;PMS_P2;Temp;Humidity;BMP_temperature;BMP_pressure;BME280_temperature;BME280_humidity;BME280_pressure;Samples;Min_cycle;Max_cycle;Signal;HPM_P1;HPM_P2
2023/04/13 00:00:43;;;;;;;;;;;;;;;;;;1911401;28;7138;-63
2023/04/13 00:01:44;;;;;;;;;;;;;;;;;;1912224;28;7050;-64
2023/04/13 00:02:42;;;;;;;;;;;;;;;;;;1912519;28;7005;-64
2023/04/13 00:03:40;;;;;;;;;;;;;;;;;;1910720;28;8173;-65
2023/04/13 00:04:38;;;;;;;;;;;;;;;;;;1911853;28;8117;-63
2023/04/13 00:05:36;;;;;;;;;;;;;;;;;;1912054;28;7108;-63
2023/04/13 00:06:37;;;;;;;;;;;;;;;;;;1912034;28;7006;-64
2023/04/13 00:07:38;;;;;;;;;;;;;;;;;;1912064;28;7120;-63
2023/04/13 00:08:36;;;;;;;;;;;;;;;;;;1912130;28;7092;-64
2023/04/13 00:09:33;;;;;;;;;;;;;;;;;;1911042;28;7025;-64
2023/04/13 00:10:35;;;;;;;;;;;;;;;;;;1911707;28;7029;-65
2023/04/13 00:11:32;;;;;;;;;;;;;;;;;;1911630;28;7156;-64
2023/04/13 00:12:30;;;;;;;;;;;;;;;;;;1911709;28;7009;-64
2023/04/13 00:13:27;;;;;;;;;;;;;;;;;;1909605;28;7124;-65
2023/04/13 00:14:32;;;;;;;;;;;;;;;;;;1911593;28;7042;-64
2023/04/13 00:15:30;;;;;;;;;;;;;;;;;;1910582;28;7033;-64
2023/04/13 00:16:30;;;;;;;;;;;;;;;;;;1910741;28;7128;-63
2023/04/13 00:17:28;;;;;;;;;;;;;;;;;;1910806;28;7217;-64
2023/04/13 00:18:26;;;;;;;;;;;;;;;;;;1911606;28;7009;-65
2023/04/13 00:19:24;;;;;;;;;;;;;;;;;;1919076;28;7114;-64
2023/04/13 00:20:21;;;;;;;;;;;;;;;;;;1918248;28;7117;-63
2023/04/13 00:21:19;;;;;;;;;;;;;;;;;;1912131;28;8031;-65
2023/04/13 00:22:16;;;;;;;;;;;;;;;;;;1911678;28;7005;-65
2023/04/13 00:23:14;;;;;;;;;;;;;;;;;;1912065;28;7033;-65
2023/04/13 00:24:12;;;;;;;;;;;;;;;;;;1911922;28;7383;-65
2023/04/13 00:25:13;;;;;;;;;;;;;;;;;;1912311;28;7061;-64
2023/04/13 00:26:10;;;;;;;;;;;;;;;;;;1912148;28;7062;-63
2023/04/13 00:27:09;;;;;;;;;;;;;;;;;;1910650;28;7057;-62
2023/04/13 00:28:07;;;;;;;;;;;;;;;;;;1911842;28;8188;-65
2023/04/13 00:29:07;;;;;;;;;;;;;;;;;;1910602;28;7005;-64
2023/04/13 00:30:08;;;;;;;;;;;;;;;;;;1911755;28;7374;-64
2023/04/13 00:31:06;;;;;;;;;;;;;;;;;;1912124;28;7088;-63
2023/04/13 00:32:03;;;;;;;;;;;;;;;;;;1912191;28;7116;-63
2023/04/13 00:33:02;;;;;;;;;;;;;;;;;;1912107;28;8034;-64
2023/04/13 00:33:59;;;;;;;;;;;;;;;;;;1911724;28;8108;-63
2023/04/13 00:34:56;;;;;;;;;;;;;;;;;;1909972;28;7100;-63
2023/04/13 00:35:54;;;;;;;;;;;;;;;;;;1911864;28;7074;-63
2023/04/13 00:36:52;;;;;;;;;;;;;;;;;;1911851;28;7113;-63
2023/04/13 00:37:51;;;;;;;;;;;;;;;;;;1911763;28;7092;-63
2023/04/13 00:38:48;;;;;;;;;;;;;;;;;;1911610;28;7142;-63
2023/04/13 00:39:45;;;;;;;;;;;;;;;;;;1911930;28;7061;-64
2023/04/13 00:40:43;;;;;;;;;;;;;;;;;;1912101;28;8101;-65
2023/04/13 00:41:41;;;;;;;;;;;;;;;;;;1911856;28;7143;-64
2023/04/13 00:42:38;;;;;;;;;;;;;;;;;;1911732;28;7088;-64
2023/04/13 00:43:35;;;;;;;;;;;;;;;;;;1911989;28;7013;-65
2023/04/13 00:44:33;;;;;;;;;;;;;;;;;;1910486;28;7368;-64
2023/04/13 00:45:37;;;;;;;;;;;;;;;;;;1911654;28;7088;-65
2023/04/13 00:46:35;;;;;;;;;;;;;;;;;;1911065;28;7066;-64
2023/04/13 00:47:34;;;;;;;;;;;;;;;;;;1910450;28;7001;-63
2023/04/13 00:48:33;;;;;;;;;;;;;;;;;;1911469;28;7129;-63
2023/04/13 00:49:34;;;;;;;;;;;;;;;;;;1910623;28;7009;-64
2023/04/13 00:50:33;;;;;;;;;;;;;;;;;;1911936;28;7163;-64
2023/04/13 00:51:31;;;;;;;;;;;;;;;;;;1911078;28;8011;-63
2023/04/13 00:52:29;;;;;;;;;;;;;;;;;;1911107;28;8026;-62
2023/04/13 00:53:27;;;;;;;;;;;;;;;;;;1910918;28;7025;-64
2023/04/13 00:54:24;;;;;;;;;;;;;;;;;;1911472;28;7132;-63
2023/04/13 00:55:23;;;;;;;;;;;;;;;;;;1911259;28;7087;-63
2023/04/13 00:56:21;;;;;;;;;;;;;;;;;;1911605;28;7009;-65
2023/04/13 00:57:19;;;;;;;;;;;;;;;;;;1911486;28;7049;-63
2023/04/13 00:58:17;;;;;;;;;;;;;;;;;;1911142;28;7009;-62
2023/04/13 00:59:14;;;;;;;;;;;;;;;;;;1910967;28;7009;-63
2023/04/13 01:00:13;;;;;;;;;;;;;;;;;;1910881;28;7315;-64
2023/04/13 01:01:10;;;;;;;;;;;;;;;;;;1911728;28;7033;-63
2023/04/13 01:02:08;;;;;;;;;;;;;;;;;;1911326;28;7120;-65
2023/04/13 01:03:06;;;;;;;;;;;;;;;;;;1911999;28;8046;-64
2023/04/13 01:04:04;;;;;;;;;;;;;;;;;;1909870;28;7042;-64
2023/04/13 01:05:03;;;;;;;;;;;;;;;;;;1911402;28;8078;-63
2023/04/13 01:06:00;;;;;;;;;;;;;;;;;;1910700;28;8148;-63
2023/04/13 01:07:09;;;;;;;;;;;;;;;;;;1911134;28;8389;-64
2023/04/13 01:08:17;;;;;;;;;;;;;;;;;;1911514;28;7026;-65
2023/04/13 01:09:18;;;;;;;;;;;;;;;;;;1911008;28;7029;-65
2023/04/13 01:10:18;;;;;;;;;;;;;;;;;;1910980;28;8050;-64
2023/04/13 01:11:28;;;;;;;;;;;;;;;;;;1910570;28;7136;-64
2023/04/13 01:12:32;;;;;;;;;;;;;;;;;;1911644;28;7144;-63
2023/04/13 01:13:52;;;;;;;;;;;;;;;;;;1911021;28;7013;-63
2023/04/13 01:15:02;;;;;;;;;;;;;;;;;;1910287;28;7299;-65
2023/04/13 01:16:09;;;;;;;;;;;;;;;;;;1910573;28;7033;-63
2023/04/13 01:17:14;;;;;;;;;;;;;;;;;;1911756;28;7154;-63
2023/04/13 01:18:32;;;;;;;;;;;;;;;;;;1911589;28;7001;-62
2023/04/13 01:19:39;;;;;;;;;;;;;;;;;;1911842;28;8111;-64
2023/04/13 01:20:40;;;;;;;;;;;;;;;;;;1910559;28;7054;-65
2023/04/13 01:21:38;;;;;;;;;;;;;;;;;;1911252;28;7096;-62
2023/04/13 01:22:38;;;;;;;;;;;;;;;;;;1911010;28;7134;-64
2023/04/13 01:24:10;;;;;;;;;;;;;;;;;;1910227;28;7089;-63
2023/04/13 01:25:32;;;;;;;;;;;;;;;;;;1887964;28;7208;-64
2023/04/13 01:26:37;;;;;;;;;;;;;;;;;;1883331;28;8092;-64
2023/04/13 01:27:45;;;;;;;;;;;;;;;;;;1898695;28;7005;-64
2023/04/13 01:28:45;;;;;;;;;;;;;;;;;;1912535;28;7010;-63
2023/04/13 01:29:45;;;;;;;;;;;;;;;;;;1913319;28;7100;-65
2023/04/13 01:30:44;;;;;;;;;;;;;;;;;;1913105;28;8012;-62
2023/04/13 01:31:42;;;;;;;;;;;;;;;;;;1913071;28;7013;-62
2023/04/13 01:32:41;;;;;;;;;;;;;;;;;;1913042;28;7141;-62
2023/04/13 01:33:39;;;;;;;;;;;;;;;;;;1912899;28;7152;-64
2023/04/13 01:34:37;;;;;;;;;;;;;;;;;;1912019;28;8022;-63
2023/04/13 01:35:35;;;;;;;;;;;;;;;;;;1912577;28;7093;-65
2023/04/13 01:36:34;;;;;;;;;;;;;;;;;;1912889;28;8115;-64
2023/04/13 01:37:32;;;;;;;;;;;;;;;;;;1912919;28;7005;-64
2023/04/13 01:38:30;;;;;;;;;;;;;;;;;;1912805;28;7001;-65
2023/04/13 01:39:30;;;;;;;;;;;;;;;;;;1912582;28;7049;-64
2023/04/13 01:40:30;;;;;;;;;;;;;;;;;;1912814;28;7066;-64
2023/04/13 01:41:27;;;;;;;;;;;;;;;;;;1912928;28;7130;-63
2023/04/13 01:42:24;;;;;;;;;;;;;;;;;;1912664;28;7124;-63
2023/04/13 01:43:22;;;;;;;;;;;;;;;;;;1912419;28;7088;-63
2023/04/13 01:44:20;;;;;;;;;;;;;;;;;;1913132;28;7074;-63
2023/04/13 01:45:22;;;;;;;;;;;;;;;;;;1911536;28;7014;-65
2023/04/13 01:46:24;;;;;;;;;;;;;;;;;;1912752;28;7005;-63
2023/04/13 01:47:24;;;;;;;;;;;;;;;;;;1910991;28;7013;-64
2023/04/13 01:48:33;;;;;;;;;;;;;;;;;;1911671;28;7108;-63
2023/04/13 01:49:30;;;;;;;;;;;;;;;;;;1912793;28;7009;-64
2023/04/13 01:50:30;;;;;;;;;;;;;;;;;;1912267;28;7132;-64
2023/04/13 01:51:31;;;;;;;;;;;;;;;;;;1912614;28;7005;-64
2023/04/13 01:52:32;;;;;;;;;;;;;;;;;;1912978;28;7676;-63
2023/04/13 01:53:35;;;;;;;;;;;;;;;;;;1912568;28;7495;-64
2023/04/13 01:54:33;;;;;;;;;;;;;;;;;;1912175;28;7009;-65
2023/04/13 01:55:31;;;;;;;;;;;;;;;;;;1913477;28;7009;-64
2023/04/13 01:56:30;;;;;;;;;;;;;;;;;;1912838;28;7034;-64
2023/04/13 01:57:30;;;;;;;;;;;;;;;;;;1913038;28;7104;-64
2023/04/13 01:58:27;;;;;;;;;;;;;;;;;;1912625;28;7033;-64
2023/04/13 01:59:24;;;;;;;;;;;;;;;;;;1912535;28;7041;-65
2023/04/13 02:00:22;;;;;;;;;;;;;;;;;;1912044;28;7092;-64
2023/04/13 02:01:20;;;;;;;;;;;;;;;;;;1912653;28;7009;-64
2023/04/13 02:02:18;;;;;;;;;;;;;;;;;;1912864;28;7396;-65
2023/04/13 02:03:16;;;;;;;;;;;;;;;;;;1912629;28;7042;-65
2023/04/13 02:04:14;;;;;;;;;;;;;;;;;;1911577;28;7160;-64
2023/04/13 02:05:11;;;;;;;;;;;;;;;;;;1910715;28;8072;-63
2023/04/13 02:06:10;;;;;;;;;;;;;;;;;;1911544;28;7005;-63
2023/04/13 02:07:07;;;;;;;;;;;;;;;;;;1912519;28;7996;-63
2023/04/13 02:08:08;;;;;;;;;;;;;;;;;;1912471;28;7045;-63
2023/04/13 02:09:05;;;;;;;;;;;;;;;;;;1912333;28;7980;-65
2023/04/13 02:10:04;;;;;;;;;;;;;;;;;;1913161;28;7403;-65
2023/04/13 02:11:03;;;;;;;;;;;;;;;;;;1912929;28;7009;-63
2023/04/13 02:12:00;;;;;;;;;;;;;;;;;;1912338;28;7017;-64
2023/04/13 02:12:58;;;;;;;;;;;;;;;;;;1912260;28;7135;-65
2023/04/13 02:13:56;;;;;;;;;;;;;;;;;;1912222;28;8116;-64
2023/04/13 02:14:55;;;;;;;;;;;;;;;;;;1912289;28;7092;-63
2023/04/13 02:15:52;;;;;;;;;;;;;;;;;;1912543;28;8068;-65
2023/04/13 02:16:50;;;;;;;;;;;;;;;;;;1912674;28;7097;-64
2023/04/13 02:17:48;;;;;;;;;;;;;;;;;;1910921;28;7088;-64
2023/04/13 02:18:46;;;;;;;;;;;;;;;;;;1911543;28;7107;-63
2023/04/13 02:19:44;;;;;;;;;;;;;;;;;;1911266;28;7117;-63
2023/04/13 02:20:42;;;;;;;;;;;;;;;;;;1897871;28;8060;-65
2023/04/13 02:21:40;;;;;;;;;;;;;;;;;;1897840;28;7002;-63
2023/04/13 02:22:40;;;;;;;;;;;;;;;;;;1897109;28;7661;-64
2023/04/13 02:23:40;;;;;;;;;;;;;;;;;;1897647;28;8578;-63
2023/04/13 02:24:37;;;;;;;;;;;;;;;;;;1896997;28;8134;-62
2023/04/13 02:25:35;;;;;;;;;;;;;;;;;;1897506;28;7124;-62
2023/04/13 02:26:32;;;;;;;;;;;;;;;;;;1897566;28;7148;-62
2023/04/13 02:27:30;;;;;;;;;;;;;;;;;;1897503;28;7009;-64
2023/04/13 02:28:29;;;;;;;;;;;;;;;;;;1897491;28;7165;-63
2023/04/13 02:29:27;;;;;;;;;;;;;;;;;;1897723;28;8012;-64
2023/04/13 02:30:25;;;;;;;;;;;;;;;;;;1897733;28;7096;-63
2023/04/13 02:31:22;;;;;;;;;;;;;;;;;;1897624;28;7077;-65
2023/04/13 02:32:20;;;;;;;;;;;;;;;;;;1897954;28;7009;-65
2023/04/13 02:33:18;;;;;;;;;;;;;;;;;;1897239;28;7013;-63
2023/04/13 02:34:15;;;;;;;;;;;;;;;;;;1896228;28;7017;-65
2023/04/13 02:35:13;;;;;;;;;;;;;;;;;;1897859;28;7096;-64
2023/04/13 02:36:10;;;;;;;;;;;;;;;;;;1898032;28;7092;-64
2023/04/13 02:37:08;;;;;;;;;;;;;;;;;;1896684;28;7013;-63
2023/04/13 02:38:05;;;;;;;;;;;;;;;;;;1896183;28;7052;-64
2023/04/13 02:39:03;;;;;;;;;;;;;;;;;;1897167;28;7117;-64
2023/04/13 02:40:06;;;;;;;;;;;;;;;;;;1896582;28;8020;-65
2023/04/13 02:41:03;;;;;;;;;;;;;;;;;;1896664;28;8083;-62
2023/04/13 02:42:01;;;;;;;;;;;;;;;;;;1897836;28;7191;-64
2023/04/13 02:42:59;;;;;;;;;;;;;;;;;;1897336;28;8095;-62
2023/04/13 02:43:56;;;;;;;;;;;;;;;;;;1895829;28;7038;-64
2023/04/13 02:44:54;;;;;;;;;;;;;;;;;;1897233;28;7096;-64
2023/04/13 02:45:55;;;;;;;;;;;;;;;;;;1895924;28;7005;-63
2023/04/13 02:46:52;;;;;;;;;;;;;;;;;;1897971;28;7156;-64
2023/04/13 02:47:49;;;;;;;;;;;;;;;;;;1896062;28;8244;-63
2023/04/13 02:48:47;;;;;;;;;;;;;;;;;;1897381;28;7013;-62
2023/04/13 02:49:45;;;;;;;;;;;;;;;;;;1897049;28;7073;-65
2023/04/13 02:50:42;;;;;;;;;;;;;;;;;;1897119;28;7117;-64
2023/04/13 02:51:39;;;;;;;;;;;;;;;;;;1897560;28;7013;-63
2023/04/13 02:52:37;;;;;;;;;;;;;;;;;;1897311;28;7041;-63
2023/04/13 02:53:34;;;;;;;;;;;;;;;;;;1897958;28;7033;-64
2023/04/13 02:54:32;;;;;;;;;;;;;;;;;;1897745;28;7334;-63
2023/04/13 02:55:29;;;;;;;;;;;;;;;;;;1895509;28;7144;-62
2023/04/13 02:56:27;;;;;;;;;;;;;;;;;;1896006;28;7288;-64
2023/04/13 02:57:24;;;;;;;;;;;;;;;;;;1897217;28;7013;-64
2023/04/13 02:58:22;;;;;;;;;;;;;;;;;;1897346;28;7017;-63
2023/04/13 02:59:21;;;;;;;;;;;;;;;;;;1897264;28;7009;-64
2023/04/13 03:00:19;;;;;;;;;;;;;;;;;;1897996;28;8011;-64
2023/04/13 03:01:16;;;;;;;;;;;;;;;;;;1897565;28;7017;-64
2023/04/13 03:02:14;;;;;;;;;;;;;;;;;;1896976;28;8049;-64
2023/04/13 03:03:11;;;;;;;;;;;;;;;;;;1897190;28;7155;-62
2023/04/13 03:04:09;;;;;;;;;;;;;;;;;;1896433;28;7379;-63
2023/04/13 03:05:07;;;;;;;;;;;;;;;;;;1896641;28;7010;-64
2023/04/13 03:06:05;;;;;;;;;;;;;;;;;;1896759;28;7042;-64
2023/04/13 03:07:06;;;;;;;;;;;;;;;;;;1897036;28;7010;-64
2023/04/13 03:08:04;;;;;;;;;;;;;;;;;;1897465;28;7009;-63
2023/04/13 03:09:02;;;;;;;;;;;;;;;;;;1897297;28;7005;-64
2023/04/13 03:10:01;;;;;;;;;;;;;;;;;;1897601;28;7001;-65
2023/04/13 03:10:59;;;;;;;;;;;;;;;;;;1896994;28;7021;-63
2023/04/13 03:11:57;;;;;;;;;;;;;;;;;;1897256;28;8050;-63
2023/04/13 03:12:54;;;;;;;;;;;;;;;;;;1896945;28;8019;-64
2023/04/13 03:13:52;;;;;;;;;;;;;;;;;;1896738;28;7538;-64
2023/04/13 03:14:50;;;;;;;;;;;;;;;;;;1897218;28;7062;-64
2023/04/13 03:15:47;;;;;;;;;;;;;;;;;;1897429;28;7097;-63
2023/04/13 03:16:45;;;;;;;;;;;;;;;;;;1897089;28;7006;-62
2023/04/13 03:17:43;;;;;;;;;;;;;;;;;;1896079;28;7207;-65
2023/04/13 03:18:40;;;;;;;;;;;;;;;;;;1897185;28;7143;-63
2023/04/13 03:19:38;;;;;;;;;;;;;;;;;;1897252;28;7049;-63
2023/04/13 03:20:35;;;;;;;;;;;;;;;;;;1911660;28;7009;-62
2023/04/13 03:21:33;;;;;;;;;;;;;;;;;;1911639;28;7014;-62
2023/04/13 03:22:30;;;;;;;;;;;;;;;;;;1912279;28;7025;-64
2023/04/13 03:23:27;;;;;;;;;;;;;;;;;;1912190;28;7014;-65
2023/04/13 03:24:28;;;;;;;;;;;;;;;;;;1911990;28;7005;-63
2023/04/13 03:25:25;;;;;;;;;;;;;;;;;;1912267;28;7979;-62
2023/04/13 03:26:24;;;;;;;;;;;;;;;;;;1911846;28;7142;-65
2023/04/13 03:27:21;;;;;;;;;;;;;;;;;;1912049;28;7006;-64
2023/04/13 03:28:19;;;;;;;;;;;;;;;;;;1912037;28;7387;-64
2023/04/13 03:29:16;;;;;;;;;;;;;;;;;;1912768;28;7005;-64
2023/04/13 03:30:14;;;;;;;;;;;;;;;;;;1912333;28;7021;-65
2023/04/13 03:31:11;;;;;;;;;;;;;;;;;;1910384;28;7088;-63
2023/04/13 03:32:09;;;;;;;;;;;;;;;;;;1911865;28;7241;-62
2023/04/13 03:33:06;;;;;;;;;;;;;;;;;;1911827;28;8018;-64
2023/04/13 03:34:04;;;;;;;;;;;;;;;;;;1912442;28;7092;-64
2023/04/13 03:35:01;;;;;;;;;;;;;;;;;;1912905;28;7088;-65
2023/04/13 03:35:58;;;;;;;;;;;;;;;;;;1912404;28;7151;-63
2023/04/13 03:36:56;;;;;;;;;;;;;;;;;;1912737;28;7097;-64
2023/04/13 03:37:53;;;;;;;;;;;;;;;;;;1912534;28;7092;-65
2023/04/13 03:38:50;;;;;;;;;;;;;;;;;;1912759;28;7013;-65
2023/04/13 03:39:48;;;;;;;;;;;;;;;;;;1911990;28;7017;-63
2023/04/13 03:40:45;;;;;;;;;;;;;;;;;;1912552;28;8342;-62
2023/04/13 03:41:43;;;;;;;;;;;;;;;;;;1912412;28;7013;-63
2023/04/13 03:42:40;;;;;;;;;;;;;;;;;;1913019;28;7041;-63
2023/04/13 03:43:37;;;;;;;;;;;;;;;;;;1911690;28;7049;-65
2023/04/13 03:44:35;;;;;;;;;;;;;;;;;;1911967;28;7045;-65
2023/04/13 03:45:32;;;;;;;;;;;;;;;;;;1912612;28;8119;-63
2023/04/13 03:46:31;;;;;;;;;;;;;;;;;;1912857;28;7006;-65
2023/04/13 03:47:29;;;;;;;;;;;;;;;;;;1918652;28;7009;-64
2023/04/13 03:48:27;;;;;;;;;;;;;;;;;;1919093;28;7006;-64
2023/04/13 03:49:24;;;;;;;;;;;;;;;;;;1913389;28;7001;-65
2023/04/13 03:50:22;;;;;;;;;;;;;;;;;;1911734;28;7005;-62
2023/04/13 03:51:20;;;;;;;;;;;;;;;;;;1912205;28;7092;-62
2023/04/13 03:52:17;;;;;;;;;;;;;;;;;;1912342;28;7868;-63
2023/04/13 03:53:15;;;;;;;;;;;;;;;;;;1911893;28;8092;-63
2023/04/13 03:54:12;;;;;;;;;;;;;;;;;;1912160;28;7150;-64
2023/04/13 03:55:10;;;;;;;;;;;;;;;;;;1912412;28;7054;-64
2023/04/13 03:56:08;;;;;;;;;;;;;;;;;;1912666;28;8031;-62
2023/04/13 03:57:05;;;;;;;;;;;;;;;;;;1912605;28;7120;-63
2023/04/13 03:58:03;;;;;;;;;;;;;;;;;;1912370;28;7010;-65
2023/04/13 03:59:00;;;;;;;;;;;;;;;;;;1911543;28;7132;-63
2023/04/13 03:59:57;;;;;;;;;;;;;;;;;;1911635;28;7088;-64
2023/04/13 04:00:55;;;;;;;;;;;;;;;;;;1911915;28;7005;-63
2023/04/13 04:01:53;;;;;;;;;;;;;;;;;;1912308;28;7005;-63
2023/04/13 04:02:50;;;;;;;;;;;;;;;;;;1912978;28;7005;-63
2023/04/13 04:03:48;;;;;;;;;;;;;;;;;;1911581;28;8009;-62
2023/04/13 04:04:45;;;;;;;;;;;;;;;;;;1911506;28;7181;-62
2023/04/13 04:05:43;;;;;;;;;;;;;;;;;;1911777;28;7268;-63
2023/04/13 04:06:41;;;;;;;;;;;;;;;;;;1910935;28;7064;-63
2023/04/13 04:07:38;;;;;;;;;;;;;;;;;;1912862;28;7080;-64
2023/04/13 04:08:36;;;;;;;;;;;;;;;;;;1912634;28;7125;-63
2023/04/13 04:09:33;;;;;;;;;;;;;;;;;;1912673;28;7089;-65
2023/04/13 04:10:30;;;;;;;;;;;;;;;;;;1912593;28;7116;-64
2023/04/13 04:11:28;;;;;;;;;;;;;;;;;;1918882;28;7005;-63
2023/04/13 04:12:25;;;;;;;;;;;;;;;;;;1919138;28;7021;-64
2023/04/13 04:13:22;;;;;;;;;;;;;;;;;;1912839;28;7001;-64
2023/04/13 04:14:21;;;;;;;;;;;;;;;;;;1912229;28;8052;-63
2023/04/13 04:15:19;;;;;;;;;;;;;;;;;;1912084;28;7038;-63
2023/04/13 04:16:16;;;;;;;;;;;;;;;;;;1912465;28;7112;-64
2023/04/13 04:17:14;;;;;;;;;;;;;;;;;;1912353;28;7006;-64
2023/04/13 04:18:11;;;;;;;;;;;;;;;;;;1910421;28;7057;-64
2023/04/13 04:19:09;;;;;;;;;;;;;;;;;;1912092;28;7002;-65
2023/04/13 04:20:06;;;;;;;;;;;;;;;;;;1911897;28;7092;-64
2023/04/13 04:21:05;;;;;;;;;;;;;;;;;;1912039;28;7001;-65
2023/04/13 04:22:03;;;;;;;;;;;;;;;;;;1911703;28;7138;-64
2023/04/13 04:23:03;;;;;;;;;;;;;;;;;;1910211;28;8064;-65
2023/04/13 04:24:01;;;;;;;;;;;;;;;;;;1911784;28;7136;-64
2023/04/13 04:24:58;;;;;;;;;;;;;;;;;;1911885;28;7037;-64
2023/04/13 04:25:59;;;;;;;;;;;;;;;;;;1911946;28;7241;-62
2023/04/13 04:26:56;;;;;;;;;;;;;;;;;;1911833;28;7021;-63
2023/04/13 04:27:56;;;;;;;;;;;;;;;;;;1912151;28;7088;-63
2023/04/13 04:29:00;;;;;;;;;;;;;;;;;;1911492;28;7033;-65
2023/04/13 04:29:59;;;;;;;;;;;;;;;;;;1911493;28;7026;-63
2023/04/13 04:31:00;;;;;;;;;;;;;;;;;;1911474;28;7006;-64
2023/04/13 04:31:57;;;;;;;;;;;;;;;;;;1910823;28;7104;-63
2023/04/13 04:32:55;;;;;;;;;;;;;;;;;;1911992;28;7005;-63
2023/04/13 04:33:53;;;;;;;;;;;;;;;;;;1911121;28;7092;-64
2023/04/13 04:34:51;;;;;;;;;;;;;;;;;;1912310;28;7084;-65
2023/04/13 04:35:50;;;;;;;;;;;;;;;;;;1912202;28;7013;-64
2023/04/13 04:36:51;;;;;;;;;;;;;;;;;;1912084;28;8032;-63
2023/04/13 04:37:48;;;;;;;;;;;;;;;;;;1911789;28;7126;-64
2023/04/13 04:38:46;;;;;;;;;;;;;;;;;;1910738;28;7841;-64
2023/04/13 04:39:44;;;;;;;;;;;;;;;;;;1911769;28;7092;-65
2023/04/13 04:40:43;;;;;;;;;;;;;;;;;;1911994;28;7312;-64
2023/04/13 04:41:42;;;;;;;;;;;;;;;;;;1910901;28;8037;-65
2023/04/13 04:42:40;;;;;;;;;;;;;;;;;;1912912;28;7054;-63
2023/04/13 04:43:38;;;;;;;;;;;;;;;;;;1910960;28;7092;-65
2023/04/13 04:44:36;;;;;;;;;;;;;;;;;;1912229;28;7139;-65
2023/04/13 04:45:35;;;;;;;;;;;;;;;;;;1909118;28;7200;-62
2023/04/13 04:46:32;;;;;;;;;;;;;;;;;;1912307;28;7009;-64
2023/04/13 04:47:31;;;;;;;;;;;;;;;;;;1911312;28;7131;-62
2023/04/13 04:48:30;;;;;;;;;;;;;;;;;;1910207;28;7038;-63
2023/04/13 04:49:28;;;;;;;;;;;;;;;;;;1911144;28;7105;-63
2023/04/13 04:50:25;;;;;;;;;;;;;;;;;;1912029;28;7045;-64
2023/04/13 04:51:23;;;;;;;;;;;;;;;;;;1912220;28;7121;-64
2023/04/13 04:52:21;;;;;;;;;;;;;;;;;;1911660;28;7042;-65
2023/04/13 04:53:21;;;;;;;;;;;;;;;;;;1911021;28;7005;-64
2023/04/13 04:54:19;;;;;;;;;;;;;;;;;;1912134;28;7163;-64
2023/04/13 04:55:17;;;;;;;;;;;;;;;;;;1912308;28;7009;-65
2023/04/13 04:56:14;;;;;;;;;;;;;;;;;;1911804;28;7009;-64
2023/04/13 04:57:13;;;;;;;;;;;;;;;;;;1911454;28;7109;-65
2023/04/13 04:58:10;;;;;;;;;;;;;;;;;;1910705;28;7097;-65
2023/04/13 04:59:09;;;;;;;;;;;;;;;;;;1911093;28;7105;-65
2023/04/13 05:00:09;;;;;;;;;;;;;;;;;;1910489;28;7061;-65
2023/04/13 05:01:07;;;;;;;;;;;;;;;;;;1911586;28;7092;-64
2023/04/13 05:02:05;;;;;;;;;;;;;;;;;;1913119;28;7001;-64
2023/04/13 05:03:02;;;;;;;;;;;;;;;;;;1913671;28;8006;-63
2023/04/13 05:04:00;;;;;;;;;;;;;;;;;;1913600;28;7142;-64
2023/04/13 05:04:57;;;;;;;;;;;;;;;;;;1913605;28;7025;-62
2023/04/13 05:05:55;;;;;;;;;;;;;;;;;;1913711;28;7013;-63
2023/04/13 05:06:52;;;;;;;;;;;;;;;;;;1913195;28;7134;-64
2023/04/13 05:07:50;;;;;;;;;;;;;;;;;;1913517;28;7025;-65
2023/04/13 05:08:47;;;;;;;;;;;;;;;;;;1913109;28;8027;-65
2023/04/13 05:09:45;;;;;;;;;;;;;;;;;;1913435;28;7009;-63
2023/04/13 05:10:46;;;;;;;;;;;;;;;;;;1913595;28;7104;-64
2023/04/13 05:11:43;;;;;;;;;;;;;;;;;;1913746;28;7009;-63
2023/04/13 05:12:41;;;;;;;;;;;;;;;;;;1913194;28;7030;-63
2023/04/13 05:13:38;;;;;;;;;;;;;;;;;;1912725;28;7046;-64
2023/04/13 05:14:35;;;;;;;;;;;;;;;;;;1912140;28;7135;-65
2023/04/13 05:15:33;;;;;;;;;;;;;;;;;;1913891;28;7109;-63
2023/04/13 05:16:32;;;;;;;;;;;;;;;;;;1914263;28;8053;-64
2023/04/13 05:17:30;;;;;;;;;;;;;;;;;;1912548;28;7096;-62
2023/04/13 05:18:29;;;;;;;;;;;;;;;;;;1912856;28;7013;-64
2023/04/13 05:19:27;;;;;;;;;;;;;;;;;;1912840;28;8020;-65
2023/04/13 05:20:26;;;;;;;;;;;;;;;;;;1912965;28;7010;-65
2023/04/13 05:21:25;;;;;;;;;;;;;;;;;;1913347;28;7144;-64
2023/04/13 05:22:23;;;;;;;;;;;;;;;;;;1913088;28;7096;-64
2023/04/13 05:23:20;;;;;;;;;;;;;;;;;;1912878;28;7144;-64
2023/04/13 05:24:18;;;;;;;;;;;;;;;;;;1913126;28;7116;-63
2023/04/13 05:25:15;;;;;;;;;;;;;;;;;;1913463;28;7088;-65
2023/04/13 05:26:13;;;;;;;;;;;;;;;;;;1913303;28;7009;-64
2023/04/13 05:27:10;;;;;;;;;;;;;;;;;;1912202;28;7049;-64
2023/04/13 05:28:08;;;;;;;;;;;;;;;;;;1911927;28;7009;-64
2023/04/13 05:29:06;;;;;;;;;;;;;;;;;;1913416;28;8219;-63
2023/04/13 05:30:05;;;;;;;;;;;;;;;;;;1913607;28;8042;-65
2023/04/13 05:31:04;;;;;;;;;;;;;;;;;;1913081;28;7009;-64
2023/04/13 05:32:01;;;;;;;;;;;;;;;;;;1913663;28;8056;-65
2023/04/13 05:33:04;;;;;;;;;;;;;;;;;;1912974;28;7005;-64
2023/04/13 05:34:02;;;;;;;;;;;;;;;;;;1912992;28;7096;-64
2023/04/13 05:34:59;;;;;;;;;;;;;;;;;;1913245;28;7042;-62
2023/04/13 05:35:57;;;;;;;;;;;;;;;;;;1913567;28;7113;-64
2023/04/13 05:36:55;;;;;;;;;;;;;;;;;;1913198;28;7021;-63
2023/04/13 05:37:52;;;;;;;;;;;;;;;;;;1913489;28;7224;-65
2023/04/13 05:38:55;;;;;;;;;;;;;;;;;;1912661;28;7009;-64
2023/04/13 05:39:53;;;;;;;;;;;;;;;;;;1913400;28;8009;-65
2023/04/13 05:40:51;;;;;;;;;;;;;;;;;;1913344;28;7088;-65
2023/04/13 05:41:48;;;;;;;;;;;;;;;;;;1913543;28;7009;-64
2023/04/13 05:42:46;;;;;;;;;;;;;;;;;;1912560;28;7041;-65
2023/04/13 05:43:45;;;;;;;;;;;;;;;;;;1912960;28;7046;-63
2023/04/13 05:44:42;;;;;;;;;;;;;;;;;;1913016;28;7005;-62
2023/04/13 05:45:40;;;;;;;;;;;;;;;;;;1913478;28;7100;-65
2023/04/13 05:46:37;;;;;;;;;;;;;;;;;;1914097;28;9023;-63
2023/04/13 05:47:35;;;;;;;;;;;;;;;;;;1912360;28;7013;-64
2023/04/13 05:48:33;;;;;;;;;;;;;;;;;;1913305;28;7111;-65
2023/04/13 05:49:31;;;;;;;;;;;;;;;;;;1913156;28;7104;-63
2023/04/13 05:50:29;;;;;;;;;;;;;;;;;;1913303;28;7113;-64
2023/04/13 05:51:30;;;;;;;;;;;;;;;;;;1913403;28;7041;-64
2023/04/13 05:52:27;;;;;;;;;;;;;;;;;;1913108;28;7092;-64
2023/04/13 05:53:25;;;;;;;;;;;;;;;;;;1913934;28;8095;-64
2023/04/13 05:54:22;;;;;;;;;;;;;;;;;;1913362;28;7001;-62
2023/04/13 05:55:20;;;;;;;;;;;;;;;;;;1913161;28;7269;-65
2023/04/13 05:56:18;;;;;;;;;;;;;;;;;;1913253;28;7383;-65
2023/04/13 05:57:15;;;;;;;;;;;;;;;;;;1913194;28;7001;-63
2023/04/13 05:58:13;;;;;;;;;;;;;;;;;;1913002;28;7146;-63
2023/04/13 05:59:10;;;;;;;;;;;;;;;;;;1913700;28;8099;-62
2023/04/13 06:00:09;;;;;;;;;;;;;;;;;;1912352;28;8035;-64
2023/04/13 06:01:11;;;;;;;;;;;;;;;;;;1913312;28;7009;-65
2023/04/13 06:02:08;;;;;;;;;;;;;;;;;;1913327;28;7157;-63
2023/04/13 06:03:06;;;;;;;;;;;;;;;;;;1911902;28;7018;-63
2023/04/13 06:04:04;;;;;;;;;;;;;;;;;;1912184;28;8006;-63
2023/04/13 06:05:03;;;;;;;;;;;;;;;;;;1914028;28;7017;-63
2023/04/13 06:06:03;;;;;;;;;;;;;;;;;;1913370;28;7123;-65
2023/04/13 06:07:03;;;;;;;;;;;;;;;;;;1913461;28;7108;-65
2023/04/13 06:08:01;;;;;;;;;;;;;;;;;;1913457;28;7070;-64
2023/04/13 06:08:58;;;;;;;;;;;;;;;;;;1913773;28;7323;-63
2023/04/13 06:09:56;;;;;;;;;;;;;;;;;;1913120;28;7092;-63
2023/04/13 06:10:53;;;;;;;;;;;;;;;;;;1913305;28;8102;-62
2023/04/13 06:11:51;;;;;;;;;;;;;;;;;;1913548;28;7092;-65
2023/04/13 06:12:51;;;;;;;;;;;;;;;;;;1912161;28;7001;-62
2023/04/13 06:13:48;;;;;;;;;;;;;;;;;;1913264;28;7009;-63
2023/04/13 06:14:46;;;;;;;;;;;;;;;;;;1913144;28;8050;-65
2023/04/13 06:15:43;;;;;;;;;;;;;;;;;;1913731;28;7109;-64
2023/04/13 06:16:41;;;;;;;;;;;;;;;;;;1913195;28;7065;-64
2023/04/13 06:17:40;;;;;;;;;;;;;;;;;;1910906;28;7364;-64
2023/04/13 06:18:37;;;;;;;;;;;;;;;;;;1913056;28;7045;-63
2023/04/13 06:19:35;;;;;;;;;;;;;;;;;;1913319;28;7042;-64
2023/04/13 06:20:32;;;;;;;;;;;;;;;;;;1913181;28;7340;-64
2023/04/13 06:21:30;;;;;;;;;;;;;;;;;;1913113;28;8039;-65
2023/04/13 06:22:29;;;;;;;;;;;;;;;;;;1913573;28;7125;-65
2023/04/13 06:23:27;;;;;;;;;;;;;;;;;;1913638;28;7017;-65
2023/04/13 06:24:24;;;;;;;;;;;;;;;;;;1912805;28;7133;-62
2023/04/13 06:25:21;;;;;;;;;;;;;;;;;;1913332;28;7081;-63
2023/04/13 06:26:19;;;;;;;;;;;;;;;;;;1912793;28;7009;-62
2023/04/13 06:27:18;;;;;;;;;;;;;;;;;;1912914;28;7009;-63
2023/04/13 06:28:15;;;;;;;;;;;;;;;;;;1912021;28;8158;-63
2023/04/13 06:29:12;;;;;;;;;;;;;;;;;;1912509;28;7014;-65
2023/04/13 06:30:10;;;;;;;;;;;;;;;;;;1913010;28;8031;-63
2023/04/13 06:31:09;;;;;;;;;;;;;;;;;;1911426;28;7158;-64
2023/04/13 06:32:10;;;;;;;;;;;;;;;;;;1913084;28;7021;-64
2023/04/13 06:33:07;;;;;;;;;;;;;;;;;;1912985;28;7034;-65
2023/04/13 06:34:04;;;;;;;;;;;;;;;;;;1913229;28;7013;-64
2023/04/13 06:35:02;;;;;;;;;;;;;;;;;;1911745;28;7142;-63
2023/04/13 06:35:59;;;;;;;;;;;;;;;;;;1912439;28;7013;-63
2023/04/13 06:36:57;;;;;;;;;;;;;;;;;;1913199;28;7013;-63
2023/04/13 06:37:54;;;;;;;;;;;;;;;;;;1904421;28;7009;-64
2023/04/13 06:38:53;;;;;;;;;;;;;;;;;;1911524;28;8165;-64
2023/04/13 06:39:51;;;;;;;;;;;;;;;;;;1911367;28;7214;-64
2023/04/13 06:40:48;;;;;;;;;;;;;;;;;;1912604;28;7339;-65
2023/04/13 06:41:47;;;;;;;;;;;;;;;;;;1912689;28;7049;-63
2023/04/13 06:42:44;;;;;;;;;;;;;;;;;;1911411;28;7009;-64
2023/04/13 06:43:42;;;;;;;;;;;;;;;;;;1910053;28;7141;-64
2023/04/13 06:44:40;;;;;;;;;;;;;;;;;;1912975;28;7328;-63
2023/04/13 06:45:37;;;;;;;;;;;;;;;;;;1913260;28;7009;-63
2023/04/13 06:46:35;;;;;;;;;;;;;;;;;;1909810;28;8020;-65
2023/04/13 06:47:33;;;;;;;;;;;;;;;;;;1910994;28;7096;-63